Accueil
METAR-TAF:

METAR-TAF

Aéroports :

Coxyde, Belgique

Base aérienne de Coxyde

latitude: 51-05N, longitude: 002-39E, altitude: 4 m

Observation

Le bulletin a été fait il y a 40 minutes, à 17:55 UTC
Vent 10 kt de ouest/nord-ouest
Température 4°C
Humidité 75%
Pression 1018 hPa
Visibilité 10 km ou plus

METAR: EBFN 161755Z AUTO 30010KT 9999 SCT170/// 04/00 Q1018 BLU

Heure: 19:35 (18:35 UTC)

Prévision

Le bulletin a été fait il y a 6 heures et 54 minutes, à 11:41 UTC
Prévision valable du 16 à 13 UTC au 16 à 22 UTC
Vent 13 kt de nord-ouest
Visibilité 10 km ou plus
Quelques nuages à une hauteur de 1500 ft
Nuages épars à une hauteur de 2000 ft
Evoluant progressivement
du 16 à 13 UTC au 16 à 15 UTC
Vent 10 kt de nord-ouest
Visibilité 10 km ou plus
Quelques nuages à une hauteur de 2000 ft

TAF: EBFN 161141Z 1613/1622 32013KT 9999 FEW015 SCT020 BECMG 1613/1615 31010KT 9999 FEW020

Observations et prévisions météorologiques de plus de 4000 aéroports (messages METAR et TAF).

Les stations disponibles sont représentées par des disques jaunes et rouges sur la carte.

Passer la souris dessus pour voir le nom de la station.

Cliquer dessus pour voir les observations et prévisions météorologiques.

Pour changer de carte: cliquez sur les boutons verts avec une croix noire pour zoomer, sur le bouton vert avec un tiret pour effectuer un zoom arrière, ou sur les flèches vertes pour les cartes adjacentes.


METAR-TAF: